createdAt,value
2023-02-24T00:01:49.535Z,6.47
2023-02-24T00:04:16.863Z,6.73
2023-02-24T00:06:44.487Z,7.70
2023-02-24T00:09:13.939Z,7.03
2023-02-24T00:11:44.814Z,6.13
2023-02-24T00:14:15.941Z,6.57
2023-02-24T00:16:45.087Z,9.83
2023-02-24T00:19:17.471Z,6.33
2023-02-24T00:21:45.619Z,5.70
2023-02-24T00:24:13.421Z,6.50
2023-02-24T00:26:41.150Z,6.20
2023-02-24T00:29:10.674Z,5.53
2023-02-24T00:31:42.969Z,5.10
2023-02-24T00:34:15.091Z,5.70
2023-02-24T00:36:42.490Z,8.00
2023-02-24T00:39:11.874Z,9.60
2023-02-24T00:41:41.635Z,5.20
2023-02-24T00:44:11.611Z,6.87
2023-02-24T00:46:47.075Z,7.87
2023-02-24T00:49:17.274Z,8.47
2023-02-24T00:51:46.910Z,6.70
2023-02-24T00:54:15.141Z,6.67
2023-02-24T00:56:43.403Z,6.17
2023-02-24T00:59:11.143Z,8.00
2023-02-24T01:01:38.522Z,6.37
2023-02-24T01:04:08.297Z,7.53
2023-02-24T01:06:35.573Z,6.13
2023-02-24T01:09:08.041Z,9.63
2023-02-24T01:11:55.218Z,6.47
2023-02-24T01:14:28.446Z,6.17
2023-02-24T01:16:56.100Z,6.57
2023-02-24T01:19:25.328Z,7.07
2023-02-24T01:21:55.126Z,6.60
2023-02-24T01:24:23.819Z,5.73
2023-02-24T01:26:51.138Z,7.63
2023-02-24T01:29:18.615Z,6.40
2023-02-24T01:31:48.650Z,6.87
2023-02-24T01:34:18.785Z,9.47
2023-02-24T01:36:46.810Z,5.47
2023-02-24T01:39:14.424Z,4.90
2023-02-24T01:41:43.794Z,6.40
2023-02-24T01:44:15.726Z,6.93
2023-02-24T01:46:44.177Z,5.40
2023-02-24T01:49:14.409Z,5.77
2023-02-24T01:51:43.483Z,6.00
2023-02-24T01:54:13.029Z,4.37
2023-02-24T01:56:41.339Z,6.67
2023-02-24T01:59:10.150Z,5.90
2023-02-24T02:01:43.308Z,5.80
2023-02-24T02:04:32.353Z,6.17
2023-02-24T02:07:00.910Z,6.70
2023-02-24T02:09:32.425Z,6.10
2023-02-24T02:11:59.776Z,6.43
2023-02-24T02:14:30.674Z,7.13
2023-02-24T02:17:16.710Z,6.73
2023-02-24T02:20:07.088Z,5.60
2023-02-24T02:22:45.562Z,6.37
2023-02-24T02:25:25.480Z,5.67
2023-02-24T02:27:52.789Z,7.20
2023-02-24T02:30:26.463Z,6.73
2023-02-24T02:33:13.154Z,6.33
2023-02-24T02:35:49.549Z,5.30
2023-02-24T02:38:28.265Z,5.90
2023-02-24T02:41:04.493Z,5.93
2023-02-24T02:43:35.793Z,5.63
2023-02-24T02:46:09.594Z,5.70
2023-02-24T02:49:12.783Z,5.07
2023-02-24T02:51:42.980Z,6.47
2023-02-24T02:54:17.084Z,4.90
2023-02-24T02:56:57.181Z,5.70
2023-02-24T02:59:27.126Z,4.23
2023-02-24T03:02:01.249Z,3.90
2023-02-24T03:04:32.616Z,4.13
2023-02-24T03:07:02.528Z,4.63
2023-02-24T03:09:33.025Z,4.43
2023-02-24T03:12:04.024Z,4.67
2023-02-24T03:14:35.015Z,3.47
2023-02-24T03:17:04.881Z,4.60
2023-02-24T03:19:39.952Z,4.03
2023-02-24T03:22:12.635Z,4.03
2023-02-24T03:24:40.935Z,3.87
2023-02-24T03:27:20.887Z,5.00
2023-02-24T03:29:53.260Z,4.30
2023-02-24T03:32:27.129Z,4.10
2023-02-24T03:34:59.775Z,4.00
2023-02-24T03:37:29.980Z,3.90
2023-02-24T03:39:58.980Z,4.07
2023-02-24T03:42:31.716Z,5.93
2023-02-24T03:44:59.147Z,3.50
2023-02-24T03:47:26.562Z,3.77
2023-02-24T03:49:54.272Z,3.93
2023-02-24T03:52:36.840Z,3.47
2023-02-24T03:55:06.683Z,3.73
2023-02-24T03:57:54.912Z,3.40
2023-02-24T04:00:36.797Z,5.23
2023-02-24T04:03:26.064Z,3.73
2023-02-24T04:06:19.232Z,4.23
2023-02-24T04:09:06.407Z,4.07
2023-02-24T04:11:41.060Z,4.10
2023-02-24T04:14:10.798Z,5.50
2023-02-24T04:16:39.948Z,3.90
2023-02-24T04:19:14.084Z,4.40
2023-02-24T04:21:43.572Z,3.93
2023-02-24T04:24:18.687Z,2.30
2023-02-24T04:26:48.016Z,3.77
2023-02-24T04:29:19.540Z,3.30
2023-02-24T04:31:49.304Z,2.67
2023-02-24T04:34:20.126Z,3.97
2023-02-24T04:36:49.502Z,3.63
2023-02-24T04:39:19.143Z,3.50
2023-02-24T04:41:50.730Z,3.87
2023-02-24T04:44:18.463Z,3.70
2023-02-24T04:46:46.530Z,3.23
2023-02-24T04:49:14.484Z,2.57
2023-02-24T04:51:44.701Z,3.60
2023-02-24T04:54:17.469Z,2.10
2023-02-24T04:56:45.552Z,3.20
2023-02-24T04:59:12.902Z,2.03
2023-02-24T05:01:42.185Z,3.80
2023-02-24T05:04:10.130Z,2.17
2023-02-24T05:06:43.782Z,2.83
2023-02-24T05:09:18.630Z,2.67
2023-02-24T05:11:48.943Z,2.87
2023-02-24T05:14:18.009Z,3.03
2023-02-24T05:16:46.652Z,3.30
2023-02-24T05:19:33.758Z,3.03
2023-02-24T05:22:03.533Z,2.10
2023-02-24T05:24:31.761Z,4.03
2023-02-24T05:26:59.385Z,3.50
2023-02-24T05:29:30.744Z,2.60
2023-02-24T05:31:59.935Z,3.47
2023-02-24T05:34:31.278Z,3.07
2023-02-24T05:36:58.914Z,2.73
2023-02-24T05:39:27.707Z,2.77
2023-02-24T05:41:57.183Z,2.30
2023-02-24T05:44:26.004Z,2.77
2023-02-24T05:47:00.905Z,2.77
2023-02-24T05:49:34.041Z,3.23
2023-02-24T05:52:02.764Z,2.47
2023-02-24T05:54:35.734Z,2.13
2023-02-24T05:57:05.116Z,2.50
2023-02-24T05:59:33.093Z,2.80
2023-02-24T06:02:02.326Z,3.50
2023-02-24T06:04:50.647Z,4.43
2023-02-24T06:07:20.773Z,2.57
2023-02-24T06:09:50.220Z,2.37
2023-02-24T06:12:18.883Z,2.73
2023-02-24T06:14:46.267Z,2.70
2023-02-24T06:17:17.168Z,3.33
2023-02-24T06:19:45.218Z,3.13
2023-02-24T06:22:13.742Z,2.50
2023-02-24T06:24:49.206Z,2.50
2023-02-24T06:27:21.585Z,2.97
2023-02-24T06:29:53.808Z,2.17
2023-02-24T06:32:23.865Z,2.33
2023-02-24T06:34:51.825Z,3.63
2023-02-24T06:37:19.217Z,3.80
2023-02-24T06:39:46.768Z,3.00
2023-02-24T06:42:14.265Z,2.57
2023-02-24T06:44:42.328Z,3.73
2023-02-24T06:47:12.975Z,3.30
2023-02-24T06:49:40.332Z,3.23
2023-02-24T06:52:08.654Z,2.37
2023-02-24T06:54:36.253Z,3.40
2023-02-24T06:57:04.496Z,3.63
2023-02-24T06:59:32.178Z,3.03
2023-02-24T07:02:01.924Z,2.53
2023-02-24T07:04:29.840Z,2.73
2023-02-24T07:07:03.903Z,3.17
2023-02-24T07:09:32.095Z,5.93
2023-02-24T07:12:02.624Z,2.57
2023-02-24T07:14:32.848Z,2.70
2023-02-24T07:17:00.870Z,2.20
2023-02-24T07:19:32.242Z,3.00
2023-02-24T07:22:00.678Z,2.43
2023-02-24T07:24:40.606Z,1.77
2023-02-24T07:27:23.454Z,2.10
2023-02-24T07:29:53.253Z,2.17
2023-02-24T07:32:25.329Z,2.37
2023-02-24T07:34:53.112Z,2.33
2023-02-24T07:37:22.938Z,2.13
2023-02-24T07:39:50.249Z,2.70
2023-02-24T07:42:17.573Z,2.50
2023-02-24T07:44:46.779Z,3.03
2023-02-24T07:47:15.799Z,3.17
2023-02-24T07:49:43.720Z,2.47
2023-02-24T07:52:11.550Z,3.47
2023-02-24T07:54:39.394Z,2.40
2023-02-24T07:57:13.264Z,2.63
2023-02-24T07:59:47.074Z,2.20
2023-02-24T08:02:15.268Z,2.37
2023-02-24T08:04:50.582Z,2.37
2023-02-24T08:07:24.180Z,2.83
2023-02-24T08:10:14.048Z,2.70
2023-02-24T08:12:42.822Z,2.83
2023-02-24T08:15:17.121Z,3.37
2023-02-24T08:17:47.430Z,1.70
2023-02-24T08:20:14.956Z,2.37
2023-02-24T08:22:44.359Z,2.60
2023-02-24T08:25:18.319Z,3.67
2023-02-24T08:28:06.456Z,2.20
2023-02-24T08:30:44.899Z,2.90
2023-02-24T08:33:17.333Z,1.97
2023-02-24T08:35:45.268Z,2.77
2023-02-24T08:38:14.807Z,2.50
2023-02-24T08:40:50.470Z,3.87
2023-02-24T08:43:19.499Z,2.23
2023-02-24T08:45:51.443Z,1.33
2023-02-24T08:48:26.373Z,3.23
2023-02-24T08:50:55.290Z,2.20
2023-02-24T08:53:23.417Z,1.97
2023-02-24T08:55:53.827Z,2.03
2023-02-24T08:58:27.056Z,2.50
2023-02-24T09:00:56.983Z,3.17
2023-02-24T09:03:28.148Z,3.50
2023-02-24T09:06:04.711Z,2.30
2023-02-24T09:08:34.597Z,2.20
2023-02-24T09:11:07.740Z,2.47
2023-02-24T09:13:51.455Z,3.10
2023-02-24T09:16:19.994Z,2.53
2023-02-24T09:19:07.779Z,2.80
2023-02-24T09:21:50.300Z,3.63
2023-02-24T09:24:27.492Z,2.83
2023-02-24T09:26:58.628Z,1.70
2023-02-24T09:29:49.117Z,3.23
2023-02-24T09:32:17.021Z,2.60
2023-02-24T09:34:44.467Z,4.53
2023-02-24T09:37:25.002Z,3.13
2023-02-24T09:39:56.090Z,1.80
2023-02-24T09:42:29.093Z,3.60
2023-02-24T09:45:11.398Z,3.23
2023-02-24T09:47:57.399Z,3.07
2023-02-24T09:51:02.802Z,3.30
2023-02-24T09:53:41.616Z,2.20
2023-02-24T09:56:09.136Z,2.90
2023-02-24T09:58:44.156Z,3.07
2023-02-24T10:01:33.602Z,3.20
2023-02-24T10:04:20.786Z,4.67
2023-02-24T10:06:50.069Z,3.40
2023-02-24T10:09:24.552Z,3.27
2023-02-24T10:11:54.436Z,3.30
2023-02-24T10:14:29.424Z,1.93
2023-02-24T10:17:22.656Z,3.47
2023-02-24T10:20:00.595Z,3.03
2023-02-24T10:22:34.603Z,3.67
2023-02-24T10:25:21.241Z,2.30
2023-02-24T10:27:53.251Z,3.83
2023-02-24T10:30:40.710Z,4.13
2023-02-24T10:33:18.276Z,4.20
2023-02-24T10:35:45.593Z,4.67
2023-02-24T10:38:13.008Z,3.17
2023-02-24T10:40:56.809Z,3.40
2023-02-24T10:43:31.738Z,3.63
2023-02-24T10:46:17.466Z,3.97
2023-02-24T10:48:51.976Z,2.50
2023-02-24T10:51:31.788Z,2.87
2023-02-24T10:54:27.065Z,2.90
2023-02-24T10:57:13.027Z,3.87
2023-02-24T11:00:14.641Z,2.20
2023-02-24T11:03:05.777Z,3.83
2023-02-24T11:05:56.360Z,3.37
2023-02-24T11:08:36.951Z,3.17
2023-02-24T11:11:25.829Z,4.57
2023-02-24T11:14:13.005Z,4.93
2023-02-24T11:17:04.850Z,3.73
2023-02-24T11:19:33.429Z,4.83
2023-02-24T11:22:02.471Z,5.43
2023-02-24T11:24:30.445Z,4.93
2023-02-24T11:26:58.147Z,5.63
2023-02-24T11:29:36.055Z,6.43
2023-02-24T11:32:08.923Z,5.77
2023-02-24T11:34:49.521Z,5.90
2023-02-24T11:37:28.690Z,6.73
2023-02-24T11:39:59.986Z,7.00
2023-02-24T11:42:31.190Z,6.87
2023-02-24T11:44:58.447Z,6.47
2023-02-24T11:47:43.295Z,9.13
2023-02-24T11:50:30.447Z,7.03
2023-02-24T11:52:58.863Z,7.97
2023-02-24T11:55:38.801Z,7.30
2023-02-24T11:58:15.430Z,9.70
2023-02-24T12:00:47.357Z,6.60
2023-02-24T12:03:24.149Z,6.77
2023-02-24T12:05:54.172Z,8.10
2023-02-24T12:08:28.314Z,6.77
2023-02-24T12:11:13.864Z,7.27
2023-02-24T12:13:51.728Z,9.00
2023-02-24T12:16:23.646Z,5.90
2023-02-24T12:18:55.845Z,8.37
2023-02-24T12:21:30.485Z,7.70
2023-02-24T12:23:58.704Z,5.60
2023-02-24T12:26:42.704Z,7.87
2023-02-24T12:29:10.689Z,8.27
2023-02-24T12:31:57.266Z,5.57
2023-02-24T12:34:43.465Z,5.00
2023-02-24T12:37:20.337Z,5.70
2023-02-24T12:39:53.732Z,5.47
2023-02-24T12:42:20.970Z,6.67
2023-02-24T12:45:00.567Z,6.83
2023-02-24T12:47:35.648Z,6.10
2023-02-24T12:50:09.182Z,4.43
2023-02-24T12:52:36.837Z,6.63
2023-02-24T12:55:16.652Z,3.27
2023-02-24T12:57:49.058Z,5.00
2023-02-24T13:00:35.285Z,4.43
2023-02-24T13:03:14.919Z,4.97
2023-02-24T13:05:52.175Z,5.53
2023-02-24T13:08:29.448Z,4.30
2023-02-24T13:11:05.336Z,5.53
2023-02-24T13:13:48.743Z,5.07
2023-02-24T13:16:16.081Z,5.80
2023-02-24T13:18:43.638Z,5.43
2023-02-24T13:21:23.665Z,7.13
2023-02-24T13:23:59.813Z,5.33
2023-02-24T13:26:28.339Z,4.33
2023-02-24T13:29:11.303Z,5.00
2023-02-24T13:31:43.475Z,3.23
2023-02-24T13:34:15.351Z,5.60
2023-02-24T13:36:50.571Z,3.73
2023-02-24T13:39:27.206Z,3.77
2023-02-24T13:42:21.122Z,2.70
2023-02-24T13:44:56.046Z,4.40
2023-02-24T13:47:26.410Z,5.10
2023-02-24T13:49:59.795Z,5.30
2023-02-24T13:52:46.074Z,5.07
2023-02-24T13:55:22.459Z,5.17
2023-02-24T13:57:56.192Z,4.23
2023-02-24T14:00:29.523Z,4.97
2023-02-24T14:02:56.995Z,3.83
2023-02-24T14:05:26.298Z,5.27
2023-02-24T14:07:54.645Z,4.87
2023-02-24T14:10:25.144Z,5.03
2023-02-24T14:13:00.339Z,5.97
2023-02-24T14:15:28.355Z,4.13
2023-02-24T14:18:03.360Z,6.80
2023-02-24T14:20:34.939Z,4.20
2023-02-24T14:23:03.892Z,6.20
2023-02-24T14:25:35.094Z,6.13
2023-02-24T14:28:02.512Z,7.57
2023-02-24T14:30:37.815Z,7.33
2023-02-24T14:33:06.961Z,7.60
2023-02-24T14:35:39.756Z,7.23
2023-02-24T14:38:07.115Z,7.90
2023-02-24T14:40:35.113Z,6.47
2023-02-24T14:43:03.847Z,7.70
2023-02-24T14:45:31.355Z,8.67
2023-02-24T14:47:58.643Z,6.93
2023-02-24T14:50:28.611Z,4.73
2023-02-24T14:53:22.815Z,5.17
2023-02-24T14:55:52.233Z,4.73
2023-02-24T14:58:22.474Z,7.20
2023-02-24T15:01:28.850Z,7.73
2023-02-24T15:03:58.387Z,4.97
2023-02-24T15:06:27.570Z,7.33
2023-02-24T15:09:00.901Z,7.37
2023-02-24T15:11:29.501Z,6.70
2023-02-24T15:13:59.114Z,6.93
2023-02-24T15:16:26.952Z,8.03
2023-02-24T15:18:55.778Z,8.17
2023-02-24T15:21:43.498Z,8.43
2023-02-24T15:24:27.850Z,7.63
2023-02-24T15:26:56.693Z,7.50
2023-02-24T15:29:28.446Z,11.77
2023-02-24T15:31:56.689Z,10.87
2023-02-24T15:34:26.596Z,7.03
2023-02-24T15:36:59.024Z,6.90
2023-02-24T15:39:28.253Z,7.57
2023-02-24T15:42:06.980Z,9.13
2023-02-24T15:44:35.307Z,5.53
2023-02-24T15:47:21.837Z,9.67
2023-02-24T15:49:49.201Z,9.53
2023-02-24T15:52:17.832Z,9.13
2023-02-24T15:54:45.173Z,9.10
2023-02-24T15:57:16.386Z,9.57
2023-02-24T15:59:43.995Z,8.73
2023-02-24T16:02:13.635Z,7.80
2023-02-24T16:04:40.923Z,7.50
2023-02-24T16:07:10.849Z,7.60
2023-02-24T16:09:40.564Z,7.73
2023-02-24T16:12:21.371Z,5.23
2023-02-24T16:14:50.304Z,6.83
2023-02-24T16:17:41.710Z,7.40
2023-02-24T16:20:16.828Z,5.70
2023-02-24T16:22:44.225Z,8.10
2023-02-24T16:25:15.178Z,7.30
2023-02-24T16:27:42.857Z,7.50
2023-02-24T16:30:15.994Z,7.70
2023-02-24T16:32:43.500Z,6.37
2023-02-24T16:35:12.049Z,6.20
2023-02-24T16:37:39.424Z,8.13
2023-02-24T16:40:37.707Z,8.87
2023-02-24T16:43:05.537Z,8.67
2023-02-24T16:45:35.691Z,8.83
2023-02-24T16:48:05.528Z,9.83
2023-02-24T16:50:33.428Z,10.17
2023-02-24T16:53:01.278Z,10.13
2023-02-24T16:55:28.654Z,8.37
2023-02-24T16:57:56.089Z,9.73
2023-02-24T17:00:24.564Z,8.97
2023-02-24T17:02:52.419Z,11.10
2023-02-24T17:05:24.322Z,11.23
2023-02-24T17:07:53.218Z,10.73
2023-02-24T17:10:20.978Z,11.80
2023-02-24T17:12:48.273Z,8.00
2023-02-24T17:15:17.805Z,12.43
2023-02-24T17:17:45.240Z,7.10
2023-02-24T17:20:13.736Z,8.10
2023-02-24T17:22:41.314Z,9.53
2023-02-24T17:25:09.311Z,11.47
2023-02-24T17:27:36.595Z,5.80
2023-02-24T17:30:03.990Z,10.77
2023-02-24T17:32:32.700Z,10.37
2023-02-24T17:35:00.046Z,6.47
2023-02-24T17:37:27.396Z,9.70
2023-02-24T17:39:54.691Z,8.30
2023-02-24T17:42:21.931Z,10.10
2023-02-24T17:44:49.431Z,8.73
2023-02-24T17:47:16.724Z,6.50
2023-02-24T17:49:44.012Z,6.10
2023-02-24T17:52:11.726Z,6.03
2023-02-24T17:54:39.572Z,4.23
2023-02-24T17:57:09.001Z,5.30
2023-02-24T17:59:37.178Z,5.90
2023-02-24T18:02:05.085Z,2.17
2023-02-24T18:04:32.539Z,2.50
2023-02-24T18:06:59.827Z,1.97
2023-02-24T18:09:27.296Z,1.63
2023-02-24T18:11:55.129Z,1.00
2023-02-24T18:14:22.590Z,2.37
2023-02-24T18:16:49.853Z,2.00
2023-02-24T18:19:19.254Z,2.60
2023-02-24T18:21:46.593Z,1.67
2023-02-24T18:24:14.326Z,1.53
2023-02-24T18:26:41.992Z,2.30
2023-02-24T18:29:09.252Z,2.30
2023-02-24T18:31:36.764Z,2.50
2023-02-24T18:34:04.458Z,6.20
2023-02-24T18:36:31.799Z,3.23
2023-02-24T18:38:59.278Z,3.13
2023-02-24T18:41:27.404Z,3.10
2023-02-24T18:43:56.765Z,2.43
2023-02-24T18:46:25.583Z,2.47
2023-02-24T18:48:53.414Z,2.10
2023-02-24T18:51:22.016Z,2.03
2023-02-24T18:53:52.395Z,2.90
2023-02-24T18:56:22.035Z,2.07
2023-02-24T18:58:52.375Z,3.03
2023-02-24T19:01:21.052Z,2.80
2023-02-24T19:03:49.036Z,3.80
2023-02-24T19:06:19.028Z,3.60
2023-02-24T19:08:47.109Z,1.50
2023-02-24T19:11:19.081Z,3.33
2023-02-24T19:13:49.871Z,2.40
2023-02-24T19:16:17.498Z,2.60
2023-02-24T19:18:45.408Z,1.40
2023-02-24T19:21:12.858Z,2.47
2023-02-24T19:23:40.536Z,3.80
2023-02-24T19:26:15.079Z,3.30
2023-02-24T19:28:47.361Z,2.20
2023-02-24T19:31:22.759Z,3.23
2023-02-24T19:33:57.474Z,2.13
2023-02-24T19:36:25.375Z,3.23
2023-02-24T19:38:53.106Z,3.33
2023-02-24T19:41:20.435Z,3.57
2023-02-24T19:43:47.791Z,3.37
2023-02-24T19:46:15.990Z,3.67
2023-02-24T19:48:43.347Z,4.30
2023-02-24T19:51:18.322Z,3.83
2023-02-24T19:53:45.884Z,4.57
2023-02-24T19:56:13.361Z,4.30
2023-02-24T19:58:40.997Z,3.67
2023-02-24T20:01:12.889Z,2.83
2023-02-24T20:03:41.269Z,4.07
2023-02-24T20:06:18.706Z,4.00
2023-02-24T20:08:46.133Z,4.37
2023-02-24T20:11:15.558Z,3.93
2023-02-24T20:13:42.982Z,4.20
2023-02-24T20:16:12.104Z,2.87
2023-02-24T20:18:39.723Z,4.20
2023-02-24T20:21:07.700Z,3.77
2023-02-24T20:23:35.571Z,7.07
2023-02-24T20:26:04.441Z,3.63
2023-02-24T20:28:31.809Z,4.03
2023-02-24T20:31:00.664Z,3.97
2023-02-24T20:33:30.272Z,4.70
2023-02-24T20:35:59.264Z,2.30
2023-02-24T20:38:26.650Z,3.30
2023-02-24T20:41:00.663Z,3.03
2023-02-24T20:43:28.751Z,5.05
2023-02-24T20:46:03.457Z,3.27
2023-02-24T20:48:30.772Z,3.80
2023-02-24T20:51:03.785Z,4.50
2023-02-24T20:53:31.497Z,3.00
2023-02-24T20:56:07.238Z,3.47
2023-02-24T20:58:34.823Z,3.83
2023-02-24T21:01:02.646Z,4.00
2023-02-24T21:03:36.174Z,3.47
2023-02-24T21:06:10.102Z,3.10
2023-02-24T21:08:39.840Z,2.77
2023-02-24T21:11:10.900Z,2.93
2023-02-24T21:13:42.693Z,4.40
2023-02-24T21:16:10.674Z,3.27
2023-02-24T21:18:38.907Z,4.20
2023-02-24T21:21:08.072Z,4.83
2023-02-24T21:23:36.043Z,3.60
2023-02-24T21:26:03.515Z,3.70
2023-02-24T21:28:36.166Z,4.53
2023-02-24T21:31:09.053Z,6.00
2023-02-24T21:33:39.985Z,4.80
2023-02-24T21:36:09.572Z,4.13
2023-02-24T21:38:40.428Z,4.27
2023-02-24T21:41:09.040Z,3.77
2023-02-24T21:43:37.824Z,4.00
2023-02-24T21:46:09.905Z,2.13
2023-02-24T21:48:45.092Z,3.73
2023-02-24T21:51:13.697Z,4.40
2023-02-24T21:56:38.941Z,3.07
2023-02-24T21:59:11.234Z,5.47
2023-02-24T22:01:41.342Z,4.23
2023-02-24T22:04:11.164Z,4.60
2023-02-24T22:06:39.151Z,3.73
2023-02-24T22:09:11.868Z,3.00
2023-02-24T22:11:41.576Z,3.70
2023-02-24T22:14:10.552Z,3.43
2023-02-24T22:16:37.969Z,2.13
2023-02-24T22:19:05.556Z,4.20
2023-02-24T22:21:33.542Z,5.13
2023-02-24T22:24:02.871Z,3.43
2023-02-24T22:26:30.841Z,3.20
2023-02-24T22:28:58.882Z,3.23
2023-02-24T22:31:28.293Z,3.83
2023-02-24T22:33:55.691Z,3.60
2023-02-24T22:36:31.017Z,4.13
2023-02-24T22:38:59.650Z,4.93
2023-02-24T22:41:31.296Z,4.78
2023-02-24T22:43:59.270Z,3.70
2023-02-24T22:46:29.508Z,3.83
2023-02-24T22:48:57.529Z,2.43
2023-02-24T22:51:25.432Z,3.27
2023-02-24T22:53:53.283Z,2.97
2023-02-24T22:56:22.582Z,3.43
2023-02-24T22:58:50.875Z,3.83
2023-02-24T23:01:19.736Z,3.83
2023-02-24T23:03:47.182Z,4.93
2023-02-24T23:06:16.693Z,3.60
2023-02-24T23:08:45.033Z,2.57
2023-02-24T23:11:16.196Z,3.67
2023-02-24T23:13:44.759Z,4.47
2023-02-24T23:16:14.052Z,4.27
2023-02-24T23:18:41.720Z,3.33
2023-02-24T23:21:10.275Z,3.73
2023-02-24T23:23:38.077Z,3.90
2023-02-24T23:26:06.010Z,4.00
2023-02-24T23:28:33.429Z,3.97
2023-02-24T23:31:00.763Z,3.70
2023-02-24T23:33:28.171Z,4.00
2023-02-24T23:35:55.521Z,3.90
2023-02-24T23:38:23.084Z,2.83
2023-02-24T23:40:51.193Z,2.20
2023-02-24T23:43:18.913Z,4.23
2023-02-24T23:45:46.365Z,2.77
2023-02-24T23:48:15.500Z,2.80
2023-02-24T23:50:43.272Z,2.93
2023-02-24T23:53:10.800Z,1.87
2023-02-24T23:55:41.106Z,3.87
2023-02-24T23:58:08.750Z,3.03
